Time;durP1;ratioP1;P1;durP2;ratioP2;P2;SDS_P1;SDS_P2;PMS_P1;PMS_P2;Temp;Humidity;BMP_temperature;BMP_pressure;BME280_temperature;BME280_humidity;BME280_pressure;Samples;Min_cycle;Max_cycle;Signal;HPM_P1;HPM_P2
2023/10/12 00:01:59;;;;;;;;;;;;;;;18.99;58.11;102419.41;5006206;28;19917;-89
2023/10/12 00:04:26;;;;;;;;;;;;;;;19.02;58.06;102416.00;5014457;28;19921;-88
2023/10/12 00:06:52;;;;;;;;;;;;;;;19.03;57.76;102423.13;4989435;28;20318;-88
2023/10/12 00:09:20;;;;;;;;;;;;;;;18.99;57.87;102414.13;5030694;28;20366;-88
2023/10/12 00:11:57;;;;;;;;;;;;;;;18.99;58.15;102415.88;4992301;28;19917;-88
2023/10/12 00:14:23;;;;;;;;;;;;;;;18.96;57.94;102411.31;5011571;28;19917;-88
2023/10/12 00:16:51;;;;;;;;;;;;;;;18.97;57.60;102402.53;5014290;28;19917;-86
2023/10/12 00:19:16;;;;;;;;;;;;;;;18.95;57.91;102401.56;5028807;28;19921;-87
2023/10/12 00:21:43;;;;;;;;;;;;;;;18.93;57.97;102405.88;5023811;28;20449;-86
2023/10/12 00:24:13;;;;;;;;;;;;;;;18.94;57.61;102402.38;5001960;28;19967;-88
2023/10/12 00:26:42;;;;;;;;;;;;;;;18.98;58.16;102400.78;5011192;28;20423;-87
2023/10/12 00:29:07;;;;;;;;;;;;;;;18.94;57.88;102404.13;5025707;28;19928;-87
2023/10/12 00:31:35;;;;;;;;;;;;;;;18.94;57.98;102405.03;5018692;28;19917;-88
2023/10/12 00:34:02;;;;;;;;;;;;;;;18.91;57.71;102399.63;5010688;28;19917;-86
2023/10/12 00:36:28;;;;;;;;;;;;;;;18.88;57.86;102399.47;5029866;28;19919;-89
2023/10/12 00:38:56;;;;;;;;;;;;;;;18.90;57.85;102396.06;5026551;28;19932;-88
2023/10/12 00:41:24;;;;;;;;;;;;;;;18.89;58.15;102396.00;5011560;28;19917;-88
2023/10/12 00:44:08;;;;;;;;;;;;;;;18.91;57.75;102389.94;5017699;28;19928;-87
2023/10/12 00:46:58;;;;;;;;;;;;;;;18.85;57.84;102384.34;5046200;28;20407;-88
2023/10/12 00:49:21;;;;;;;;;;;;;;;18.87;58.02;102382.69;5045020;28;19913;-88
2023/10/12 00:52:07;;;;;;;;;;;;;;;18.86;57.93;102383.53;5021299;28;20003;-87
2023/10/12 00:54:40;;;;;;;;;;;;;;;18.88;57.64;102379.22;5037042;28;19917;-87
2023/10/12 00:57:06;;;;;;;;;;;;;;;18.84;57.88;102371.97;5036090;28;19912;-88
2023/10/12 00:59:35;;;;;;;;;;;;;;;18.82;58.08;102365.69;5034428;28;19944;-89
2023/10/12 01:02:02;;;;;;;;;;;;;;;18.82;57.65;102368.34;5034667;28;19917;-89
2023/10/12 01:04:30;;;;;;;;;;;;;;;18.82;57.56;102362.16;5052647;28;19920;-88
2023/10/12 01:07:00;;;;;;;;;;;;;;;18.83;57.96;102372.78;5033590;28;19916;-88
2023/10/12 01:09:29;;;;;;;;;;;;;;;18.84;57.55;102368.41;5031422;28;20421;-88
2023/10/12 01:12:00;;;;;;;;;;;;;;;18.85;57.63;102359.63;5057866;28;20011;-87
2023/10/12 01:14:31;;;;;;;;;;;;;;;18.82;57.69;102367.44;5018634;28;19923;-88
2023/10/12 01:16:59;;;;;;;;;;;;;;;18.81;57.37;102368.25;5029676;28;19967;-88
2023/10/12 01:19:31;;;;;;;;;;;;;;;18.83;57.91;102369.22;5056127;28;20356;-88
2023/10/12 01:22:13;;;;;;;;;;;;;;;18.79;57.58;102370.81;5037440;28;19921;-87
2023/10/12 01:24:44;;;;;;;;;;;;;;;18.77;57.73;102368.91;5028498;28;20007;-87
2023/10/12 01:27:12;;;;;;;;;;;;;;;18.76;57.89;102369.78;5047717;28;19924;-86
2023/10/12 01:29:38;;;;;;;;;;;;;;;18.77;57.51;102375.09;5029190;28;19921;-85
2023/10/12 01:34:38;;;;;;;;;;;;;;;18.74;57.60;102379.38;5049030;28;20358;-87
2023/10/12 01:37:11;;;;;;;;;;;;;;;18.74;57.42;102372.34;5033961;28;19975;-88
2023/10/12 01:39:39;;;;;;;;;;;;;;;18.72;57.54;102380.19;5030415;28;19916;-87
2023/10/12 01:42:06;;;;;;;;;;;;;;;18.75;57.33;102375.88;5034442;28;19920;-88
2023/10/12 01:44:32;;;;;;;;;;;;;;;18.71;57.37;102366.88;5041180;28;19928;-88
2023/10/12 01:46:57;;;;;;;;;;;;;;;18.72;57.55;102368.72;5019153;28;19921;-86
2023/10/12 01:49:23;;;;;;;;;;;;;;;18.71;57.59;102367.81;5043253;28;20011;-87
2023/10/12 01:51:49;;;;;;;;;;;;;;;18.69;57.20;102369.47;5050984;28;19928;-86
2023/10/12 01:54:22;;;;;;;;;;;;;;;18.67;57.30;102370.25;5015303;28;19917;-86
2023/10/12 01:56:48;;;;;;;;;;;;;;;18.69;57.41;102368.59;5027425;28;19917;-86
2023/10/12 01:59:19;;;;;;;;;;;;;;;18.66;56.99;102366.66;5032547;28;19916;-87
2023/10/12 02:01:53;;;;;;;;;;;;;;;18.64;57.29;102364.78;5033031;28;20326;-87
2023/10/12 02:04:21;;;;;;;;;;;;;;;18.65;57.70;102366.63;5031299;28;19929;-88
2023/10/12 02:06:47;;;;;;;;;;;;;;;18.66;57.25;102373.72;5049445;28;19913;-86
2023/10/12 02:09:15;;;;;;;;;;;;;;;18.65;57.50;102369.28;5010524;28;19932;-86
2023/10/12 02:11:44;;;;;;;;;;;;;;;18.60;57.55;102361.09;5032730;28;19921;-87
2023/10/12 02:14:11;;;;;;;;;;;;;;;18.61;57.80;102365.56;5030293;28;19939;-88
2023/10/12 02:16:40;;;;;;;;;;;;;;;18.65;57.39;102362.22;5050904;28;19923;-88
2023/10/12 02:19:19;;;;;;;;;;;;;;;18.64;57.51;102367.44;5025378;28;19917;-87
2023/10/12 02:21:46;;;;;;;;;;;;;;;18.62;57.52;102367.38;5033251;28;20011;-88
2023/10/12 02:24:14;;;;;;;;;;;;;;;18.59;57.59;102366.34;5029120;28;19932;-87
2023/10/12 02:31:38;;;;;;;;;;;;;;;18.59;57.94;102363.69;5041896;28;19916;-89
2023/10/12 02:34:05;;;;;;;;;;;;;;;18.57;57.77;102352.13;5045089;28;19925;-88
2023/10/12 02:36:31;;;;;;;;;;;;;;;18.56;57.55;102348.56;5043550;28;19917;-89
2023/10/12 02:38:59;;;;;;;;;;;;;;;18.55;57.61;102345.88;5061571;28;19920;-89
2023/10/12 02:41:25;;;;;;;;;;;;;;;18.56;57.48;102352.94;5045536;28;19936;-87
2023/10/12 02:43:55;;;;;;;;;;;;;;;18.62;57.43;102351.47;5051357;28;19935;-88
2023/10/12 02:46:32;;;;;;;;;;;;;;;18.56;57.64;102348.56;5049100;28;19920;-88
2023/10/12 02:49:06;;;;;;;;;;;;;;;18.56;57.59;102348.56;5018060;28;20378;-89
2023/10/12 02:51:34;;;;;;;;;;;;;;;18.55;57.64;102352.06;5028922;28;19921;-87
2023/10/12 02:54:03;;;;;;;;;;;;;;;18.52;57.73;102354.56;5002151;28;20402;-89
2023/10/12 02:56:31;;;;;;;;;;;;;;;18.52;57.36;102347.53;5044662;28;20559;-87
2023/10/12 02:59:02;;;;;;;;;;;;;;;18.50;57.86;102349.19;5025005;28;19917;-87
2023/10/12 03:01:29;;;;;;;;;;;;;;;18.49;57.21;102352.66;5015015;28;20035;-88
2023/10/12 03:03:55;;;;;;;;;;;;;;;18.50;57.69;102346.53;5015936;28;20412;-86
2023/10/12 03:06:24;;;;;;;;;;;;;;;18.48;57.78;102350.84;5021529;28;19924;-87
2023/10/12 03:11:35;;;;;;;;;;;;;;;18.47;57.43;102345.50;5016515;28;20655;-88
2023/10/12 03:14:01;;;;;;;;;;;;;;;18.49;57.67;102346.47;5001686;28;19968;-88
2023/10/12 03:16:41;;;;;;;;;;;;;;;18.45;57.56;102349.81;5029163;28;20387;-87
2023/10/12 03:19:23;;;;;;;;;;;;;;;18.46;57.35;102344.59;5009088;28;19953;-87
2023/10/12 03:21:51;;;;;;;;;;;;;;;18.45;57.44;102347.16;5016160;28;19917;-89
2023/10/12 03:24:17;;;;;;;;;;;;;;;18.44;57.56;102348.00;5016414;28;19932;-89
2023/10/12 03:26:49;;;;;;;;;;;;;;;18.44;57.23;102355.94;5010494;28;19924;-88
2023/10/12 03:34:35;;;;;;;;;;;;;;;18.39;57.53;102342.47;5016537;28;19917;-87
2023/10/12 03:37:04;;;;;;;;;;;;;;;18.36;57.66;102345.00;5018215;28;19917;-87
2023/10/12 03:39:41;;;;;;;;;;;;;;;18.38;57.36;102340.69;5013630;28;19925;-87
2023/10/12 03:42:12;;;;;;;;;;;;;;;18.37;57.48;102338.88;5006855;28;20382;-87
2023/10/12 03:52:34;;;;;;;;;;;;;;;18.30;57.71;102342.03;5005310;28;19921;-87
2023/10/12 03:55:34;;;;;;;;;;;;;;;18.32;57.66;102345.66;5015442;28;20026;-86
2023/10/12 03:58:07;;;;;;;;;;;;;;;18.32;57.50;102343.03;5025290;28;20318;-85
2023/10/12 04:01:05;;;;;;;;;;;;;;;18.32;57.32;102340.38;5002893;28;19925;-89
2023/10/12 04:12:49;;;;;;;;;;;;;;;18.30;57.53;102331.47;4957149;28;20296;-85
2023/10/12 04:21:17;;;;;;;;;;;;;;;18.21;57.51;102337.22;4931690;28;20653;-88
2023/10/12 04:23:46;;;;;;;;;;;;;;;18.22;57.59;102333.72;4981257;28;19948;-88
2023/10/12 04:28:49;;;;;;;;;;;;;;;18.21;57.43;102337.22;5030066;28;19917;-88
2023/10/12 04:31:33;;;;;;;;;;;;;;;18.20;57.41;102331.84;5010314;28;19925;-86
2023/10/12 04:34:08;;;;;;;;;;;;;;;18.21;57.55;102333.69;5014773;28;19924;-86
2023/10/12 04:39:25;;;;;;;;;;;;;;;18.18;57.65;102341.47;5006547;28;20428;-85
2023/10/12 04:44:36;;;;;;;;;;;;;;;18.13;57.37;102338.59;5028750;28;19922;-84
2023/10/12 04:47:06;;;;;;;;;;;;;;;18.13;57.71;102335.94;5012134;28;19917;-83
2023/10/12 04:54:49;;;;;;;;;;;;;;;18.16;57.55;102329.91;5017514;28;19924;-83
2023/10/12 04:57:15;;;;;;;;;;;;;;;18.16;57.44;102341.41;5028073;28;19917;-85
2023/10/12 04:59:50;;;;;;;;;;;;;;;18.13;57.67;102338.59;5010601;28;19924;-83
2023/10/12 05:02:28;;;;;;;;;;;;;;;18.13;57.52;102341.25;5019301;28;19925;-83
2023/10/12 05:09:51;;;;;;;;;;;;;;;18.11;57.51;102342.91;5011378;28;19917;-84
2023/10/12 05:12:25;;;;;;;;;;;;;;;18.17;57.04;102350.25;5033214;28;19917;-85
2023/10/12 05:15:00;;;;;;;;;;;;;;;18.13;57.31;102346.53;5013759;28;19917;-85
2023/10/12 05:17:25;;;;;;;;;;;;;;;18.13;57.32;102349.16;5009558;28;19976;-84
2023/10/12 05:19:53;;;;;;;;;;;;;;;18.14;57.30;102350.06;5016143;28;19986;-85
2023/10/12 05:22:22;;;;;;;;;;;;;;;18.11;57.58;102349.09;5027781;28;19916;-85
2023/10/12 05:24:47;;;;;;;;;;;;;;;18.10;57.28;102344.66;5032381;28;19990;-84
2023/10/12 05:27:28;;;;;;;;;;;;;;;18.10;57.50;102341.09;5016657;28;19916;-83
2023/10/12 05:29:59;;;;;;;;;;;;;;;18.09;57.59;102347.22;5028144;28;19917;-86
2023/10/12 05:32:37;;;;;;;;;;;;;;;18.09;57.67;102342.81;5030297;28;20375;-84
2023/10/12 05:35:06;;;;;;;;;;;;;;;18.10;57.32;102343.75;5013421;28;19948;-84
2023/10/12 05:37:38;;;;;;;;;;;;;;;18.07;57.64;102348.88;5030966;28;19921;-83
2023/10/12 05:40:10;;;;;;;;;;;;;;;18.08;57.48;102348.06;5027106;28;20449;-85
2023/10/12 05:42:39;;;;;;;;;;;;;;;18.08;57.43;102356.88;5023328;28;19968;-85
2023/10/12 05:48:09;;;;;;;;;;;;;;;18.06;57.72;102353.25;4920439;29;19919;-85
2023/10/12 05:50:35;;;;;;;;;;;;;;;18.06;57.57;102353.25;4929722;29;19918;-85
2023/10/12 05:53:03;;;;;;;;;;;;;;;18.03;57.84;102360.13;4975809;28;19996;-86
2023/10/12 05:55:29;;;;;;;;;;;;;;;18.08;57.63;102356.00;5008559;28;19916;-86
2023/10/12 05:58:05;;;;;;;;;;;;;;;18.04;57.53;102349.63;5010924;28;20370;-86
2023/10/12 06:00:41;;;;;;;;;;;;;;;18.04;57.43;102361.97;5032840;28;19940;-86
2023/10/12 06:03:10;;;;;;;;;;;;;;;18.04;57.66;102357.56;5033160;28;19936;-86
2023/10/12 06:05:36;;;;;;;;;;;;;;;18.03;57.70;102360.13;5035079;28;19956;-86
2023/10/12 06:08:02;;;;;;;;;;;;;;;18.04;57.58;102356.66;4994087;28;19960;-86
2023/10/12 06:10:28;;;;;;;;;;;;;;;18.01;57.91;102360.06;5029627;28;19924;-86
2023/10/12 06:12:53;;;;;;;;;;;;;;;18.06;57.79;102353.25;5019252;28;19917;-88
2023/10/12 06:15:22;;;;;;;;;;;;;;;18.05;57.71;102359.38;5014163;28;19921;-88
2023/10/12 06:17:51;;;;;;;;;;;;;;;18.02;57.74;102360.97;4999380;28;20317;-86
2023/10/12 06:20:29;;;;;;;;;;;;;;;18.04;58.09;102365.50;5022655;28;19984;-87
2023/10/12 06:22:55;;;;;;;;;;;;;;;18.00;57.82;102354.69;5027369;28;19944;-85
2023/10/12 06:25:21;;;;;;;;;;;;;;;18.03;57.75;102361.06;5034150;28;20306;-86
2023/10/12 06:27:50;;;;;;;;;;;;;;;18.04;57.92;102361.97;5029697;28;19991;-85
2023/10/12 06:30:18;;;;;;;;;;;;;;;18.02;58.00;102358.31;5011171;28;19924;-87
2023/10/12 06:32:46;;;;;;;;;;;;;;;17.99;58.19;102356.44;5031851;28;19917;-85
2023/10/12 06:38:15;;;;;;;;;;;;;;;18.01;57.78;102353.84;5007391;28;19964;-86
2023/10/12 06:40:38;;;;;;;;;;;;;;;17.98;57.97;102354.63;5014177;28;19917;-90
2023/10/12 06:45:51;;;;;;;;;;;;;;;17.97;57.80;102351.88;5013819;28;19921;-87
2023/10/12 06:51:03;;;;;;;;;;;;;;;18.03;57.77;102349.56;5020820;28;19916;-86
2023/10/12 06:53:36;;;;;;;;;;;;;;;17.98;58.28;102354.63;5011011;28;19924;-87
2023/10/12 06:59:07;;;;;;;;;;;;;;;18.03;57.73;102358.41;5012761;28;19917;-91
2023/10/12 07:04:36;;;;;;;;;;;;;;;17.94;58.22;102359.69;5012409;28;19928;-86
2023/10/12 07:07:11;;;;;;;;;;;;;;;17.89;58.10;102364.75;5009868;28;19991;-91
2023/10/12 07:09:39;;;;;;;;;;;;;;;17.94;58.36;102357.03;4992879;28;19952;-89
2023/10/12 07:12:06;;;;;;;;;;;;;;;17.88;58.55;102361.16;4987784;28;20019;-89
2023/10/12 07:14:37;;;;;;;;;;;;;;;17.84;58.52;102358.31;5009770;28;19921;-89
2023/10/12 07:17:04;;;;;;;;;;;;;;;17.78;58.92;102350.97;4993647;28;20376;-90
2023/10/12 07:19:30;;;;;;;;;;;;;;;17.82;58.65;102365.22;5002863;28;19929;-88
2023/10/12 07:21:56;;;;;;;;;;;;;;;17.77;58.83;102357.06;5012302;28;19917;-88
2023/10/12 07:24:23;;;;;;;;;;;;;;;17.80;58.95;102354.59;5028452;28;20041;-90
2023/10/12 07:26:49;;;;;;;;;;;;;;;17.78;58.93;102356.25;5032519;28;19987;-90
2023/10/12 07:29:19;;;;;;;;;;;;;;;17.77;59.13;102351.78;5021890;28;19922;-89
2023/10/12 07:31:49;;;;;;;;;;;;;;;17.87;59.13;102348.81;5012484;28;19917;-93
2023/10/12 07:34:15;;;;;;;;;;;;;;;17.77;59.09;102348.25;5011302;28;19944;-89
2023/10/12 07:36:53;;;;;;;;;;;;;;;17.78;59.04;102350.97;5014019;28;19917;-90
2023/10/12 07:39:20;;;;;;;;;;;;;;;17.81;59.44;102347.56;4994731;28;20016;-89
2023/10/12 07:41:55;;;;;;;;;;;;;;;17.81;59.09;102347.56;5008153;28;20314;-89
2023/10/12 07:44:21;;;;;;;;;;;;;;;17.72;59.68;102352.41;5039575;28;19921;-88
2023/10/12 07:46:48;;;;;;;;;;;;;;;17.72;59.77;102350.66;5026854;28;19917;-89
2023/10/12 07:49:48;;;;;;;;;;;;;;;17.75;59.32;102349.91;5032859;28;19932;-90
2023/10/12 07:57:15;;;;;;;;;;;;;;;18.04;58.71;102347.00;5052265;28;20658;-89
2023/10/12 08:13:16;;;;;;;;;;;;;;;17.92;59.01;102358.69;5046831;28;20278;-91
2023/10/12 08:23:48;;;;;;;;;;;;;;;17.98;58.91;102353.72;5057916;28;19925;-90
2023/10/12 08:26:21;;;;;;;;;;;;;;;17.85;59.37;102347.81;5016366;28;19913;-89
2023/10/12 08:28:55;;;;;;;;;;;;;;;17.77;59.69;102350.88;5016722;28;19917;-91
2023/10/12 08:31:20;;;;;;;;;;;;;;;17.76;59.64;102349.06;5054749;28;19917;-91
2023/10/12 08:33:49;;;;;;;;;;;;;;;17.75;59.77;102348.16;5020326;28;19972;-92
2023/10/12 08:38:54;;;;;;;;;;;;;;;17.72;60.47;102344.47;5037481;28;19916;-90
2023/10/12 08:43:53;;;;;;;;;;;;;;;17.74;61.46;102350.72;5051767;28;19925;-90
2023/10/12 08:52:04;;;;;;;;;;;;;;;17.76;62.65;102334.13;5019208;28;19975;-91
2023/10/12 08:54:37;;;;;;;;;;;;;;;17.76;62.72;102338.47;5013698;28;19925;-90
2023/10/12 08:57:03;;;;;;;;;;;;;;;17.80;62.53;102336.09;5021715;28;19912;-90
2023/10/12 08:59:38;;;;;;;;;;;;;;;17.79;62.90;102339.56;5018936;28;19984;-91
2023/10/12 09:02:18;;;;;;;;;;;;;;;17.81;62.76;102337.88;5000601;28;20361;-91
2023/10/12 09:04:48;;;;;;;;;;;;;;;17.81;64.20;102337.00;4991195;28;19921;-89
2023/10/12 09:07:19;;;;;;;;;;;;;;;17.83;64.14;102338.00;5010751;28;19913;-89
2023/10/12 09:09:55;;;;;;;;;;;;;;;17.78;64.52;102327.19;5017318;28;19917;-92
2023/10/12 09:12:26;;;;;;;;;;;;;;;17.79;64.04;102328.97;5015853;28;20368;-90
2023/10/12 09:14:55;;;;;;;;;;;;;;;17.85;64.02;102324.03;4999683;28;19917;-91
2023/10/12 09:17:29;;;;;;;;;;;;;;;17.85;64.02;102326.69;4998013;28;20007;-90
2023/10/12 09:22:40;;;;;;;;;;;;;;;17.84;64.57;102318.66;5020073;28;19927;-90
2023/10/12 09:25:09;;;;;;;;;;;;;;;17.83;65.77;102323.06;4996568;28;19914;-90
2023/10/12 09:27:36;;;;;;;;;;;;;;;17.85;64.39;102318.75;5011152;28;19917;-89
2023/10/12 09:30:15;;;;;;;;;;;;;;;17.84;65.40;102310.75;4999875;28;19951;-89
2023/10/12 09:32:57;;;;;;;;;;;;;;;17.85;65.46;102309.94;5002337;28;20379;-92
2023/10/12 09:35:33;;;;;;;;;;;;;;;17.83;65.86;102301.91;5024320;28;19927;-91
2023/10/12 09:38:05;;;;;;;;;;;;;;;17.74;66.48;102280.31;5009637;28;19913;-86
2023/10/12 09:40:39;;;;;;;;;;;;;;;17.86;65.72;102302.09;5014669;28;19913;-89
2023/10/12 09:43:12;;;;;;;;;;;;;;;17.83;65.60;102296.63;4999563;28;19917;-90
2023/10/12 09:45:47;;;;;;;;;;;;;;;17.83;65.56;102291.34;5001175;28;19932;-89
2023/10/12 09:48:19;;;;;;;;;;;;;;;17.85;66.46;102292.31;5006272;28;19917;-89
2023/10/12 09:50:44;;;;;;;;;;;;;;;17.86;67.01;102286.22;4995595;28;19914;-87
2023/10/12 09:53:21;;;;;;;;;;;;;;;17.85;65.75;102276.47;5027347;28;20318;-89
2023/10/12 09:56:02;;;;;;;;;;;;;;;17.85;65.50;102275.56;5004853;28;19913;-89
2023/10/12 09:58:32;;;;;;;;;;;;;;;17.83;65.22;102270.19;4991829;28;19920;-89
2023/10/12 10:01:15;;;;;;;;;;;;;;;17.87;65.15;102263.34;4997756;28;19920;-88
2023/10/12 10:03:50;;;;;;;;;;;;;;;17.86;64.64;102256.22;5014450;28;19924;-88
2023/10/12 10:06:45;;;;;;;;;;;;;;;17.87;64.99;102253.66;5005650;28;19913;-90
2023/10/12 10:11:58;;;;;;;;;;;;;;;17.85;65.27;102244.75;5008607;28;20314;-91
2023/10/12 10:14:44;;;;;;;;;;;;;;;17.83;65.26;102241.13;5015785;28;19925;-91
2023/10/12 10:17:14;;;;;;;;;;;;;;;17.87;64.98;102240.44;5015111;28;19917;-89
2023/10/12 10:19:44;;;;;;;;;;;;;;;17.92;65.94;102237.13;5013888;28;19933;-87
2023/10/12 10:22:14;;;;;;;;;;;;;;;17.86;65.08;102233.38;5008124;28;19917;-89
2023/10/12 10:24:39;;;;;;;;;;;;;;;17.87;66.33;102237.81;5010072;28;19928;-89
2023/10/12 10:27:56;;;;;;;;;;;;;;;17.89;66.73;102230.84;5010419;28;19913;-87
2023/10/12 10:40:43;;;;;;;;;;;;;;;17.94;67.14;102224.88;5029244;28;19928;-88
2023/10/12 10:46:26;;;;;;;;;;;;;;;17.94;67.22;102219.59;5036408;28;20074;-89
2023/10/12 10:49:06;;;;;;;;;;;;;;;17.94;68.22;102215.22;5054046;28;19928;-88
2023/10/12 10:51:32;;;;;;;;;;;;;;;17.95;67.55;102211.75;5017409;28;19917;-89
2023/10/12 10:53:58;;;;;;;;;;;;;;;17.97;68.01;102212.72;5036468;28;19927;-88
2023/10/12 10:56:44;;;;;;;;;;;;;;;17.99;68.13;102207.47;5035466;28;19921;-88
2023/10/12 10:59:17;;;;;;;;;;;;;;;17.98;68.29;102206.59;5036778;28;19924;-88
2023/10/12 11:01:49;;;;;;;;;;;;;;;18.01;67.63;102197.88;5033944;28;19917;-89
2023/10/12 11:04:19;;;;;;;;;;;;;;;18.01;68.68;102204.09;5050245;28;19916;-88
2023/10/12 11:06:47;;;;;;;;;;;;;;;18.02;67.32;102194.44;5033944;28;19913;-88
2023/10/12 11:09:15;;;;;;;;;;;;;;;18.01;67.33;102187.31;5050861;28;19919;-88
2023/10/12 11:11:53;;;;;;;;;;;;;;;18.00;67.45;102185.53;5033633;28;20453;-88
2023/10/12 11:14:19;;;;;;;;;;;;;;;18.02;67.94;102182.09;5033913;28;19920;-88
2023/10/12 11:16:46;;;;;;;;;;;;;;;18.04;68.74;102177.78;5045972;28;20386;-88
2023/10/12 11:19:12;;;;;;;;;;;;;;;18.04;68.68;102183.09;5051537;28;19919;-87
2023/10/12 11:22:02;;;;;;;;;;;;;;;18.04;69.24;102180.44;5009822;28;19923;-88
2023/10/12 11:24:28;;;;;;;;;;;;;;;18.04;68.17;102180.44;5044504;28;19984;-88
2023/10/12 11:26:54;;;;;;;;;;;;;;;18.07;68.52;102169.09;5049725;28;20437;-89
2023/10/12 11:29:20;;;;;;;;;;;;;;;18.08;68.50;102168.28;5024391;28;19913;-88
2023/10/12 11:32:16;;;;;;;;;;;;;;;18.12;67.73;102162.31;5063554;28;20004;-89
2023/10/12 11:34:45;;;;;;;;;;;;;;;18.13;67.64;102163.19;5029764;28;19967;-89
2023/10/12 11:37:14;;;;;;;;;;;;;;;18.20;67.60;102160.91;5033220;28;19945;-89
2023/10/12 11:39:43;;;;;;;;;;;;;;;18.19;66.99;102169.66;5035299;28;19916;-88
2023/10/12 11:42:12;;;;;;;;;;;;;;;18.23;67.04;102155.75;5048836;28;19919;-89
2023/10/12 11:44:42;;;;;;;;;;;;;;;18.26;66.95;102157.63;5053735;28;19924;-89
2023/10/12 11:47:28;;;;;;;;;;;;;;;18.28;67.30;102166.53;5032188;28;19986;-89
2023/10/12 11:49:56;;;;;;;;;;;;;;;18.33;66.48;102157.06;5004582;28;20444;-88
2023/10/12 11:52:32;;;;;;;;;;;;;;;18.31;66.56;102149.06;5024171;28;19917;-89
2023/10/12 11:55:21;;;;;;;;;;;;;;;18.32;66.54;102149.97;5011998;28;20007;-89
2023/10/12 11:58:06;;;;;;;;;;;;;;;18.36;66.38;102143.06;4999113;28;20727;-90
2023/10/12 12:00:38;;;;;;;;;;;;;;;18.35;66.03;102142.19;5019864;28;20386;-88
2023/10/12 12:03:09;;;;;;;;;;;;;;;18.37;66.05;102126.34;5000100;28;19929;-88
2023/10/12 12:05:37;;;;;;;;;;;;;;;18.46;65.47;102132.97;5017567;28;19983;-88
2023/10/12 12:08:06;;;;;;;;;;;;;;;18.53;65.37;102128.84;5034011;28;19917;-88
2023/10/12 12:13:12;;;;;;;;;;;;;;;18.53;65.50;102123.53;5017190;28;19913;-89
2023/10/12 12:15:40;;;;;;;;;;;;;;;18.57;65.90;102129.88;5016157;28;20346;-89
2023/10/12 12:18:13;;;;;;;;;;;;;;;18.55;65.86;102123.63;5033137;28;20016;-88
2023/10/12 12:20:39;;;;;;;;;;;;;;;18.56;66.46;102123.66;5015790;28;19974;-89
2023/10/12 12:23:05;;;;;;;;;;;;;;;18.57;65.96;102119.31;5025187;28;19921;-89
2023/10/12 12:25:32;;;;;;;;;;;;;;;18.54;66.34;102111.22;5011715;28;19914;-88
2023/10/12 12:28:04;;;;;;;;;;;;;;;18.58;66.06;102119.34;5025471;28;19919;-88
2023/10/12 12:30:32;;;;;;;;;;;;;;;18.58;66.27;102113.16;5012501;28;19913;-90
2023/10/12 12:33:00;;;;;;;;;;;;;;;18.57;66.12;102103.44;4998521;28;19917;-89
2023/10/12 12:35:27;;;;;;;;;;;;;;;18.59;66.00;102102.66;4996879;28;20929;-86
2023/10/12 12:38:00;;;;;;;;;;;;;;;18.62;66.16;102102.75;5010709;28;19960;-88
2023/10/12 12:40:30;;;;;;;;;;;;;;;18.62;66.44;102099.22;5012432;28;20342;-87
2023/10/12 12:43:00;;;;;;;;;;;;;;;18.61;66.40;102095.69;5011968;28;20645;-89
2023/10/12 12:45:26;;;;;;;;;;;;;;;18.72;66.09;102091.72;5016458;28;20013;-88
2023/10/12 12:47:55;;;;;;;;;;;;;;;18.70;66.26;102087.22;5026668;28;20372;-88
2023/10/12 12:50:21;;;;;;;;;;;;;;;18.66;66.82;102091.47;5023733;28;20487;-89
2023/10/12 12:52:48;;;;;;;;;;;;;;;18.68;66.80;102084.50;5008332;28;20012;-89
2023/10/12 12:55:22;;;;;;;;;;;;;;;18.65;66.98;102083.50;5027892;28;19967;-89
2023/10/12 12:57:47;;;;;;;;;;;;;;;18.59;67.42;102075.28;5051072;28;19917;-89
2023/10/12 13:00:19;;;;;;;;;;;;;;;18.58;67.41;102081.41;5016392;28;20394;-88
2023/10/12 13:02:46;;;;;;;;;;;;;;;18.58;67.47;102076.13;5041402;28;19913;-89
2023/10/12 13:05:11;;;;;;;;;;;;;;;18.58;67.31;102074.38;5049320;28;19988;-89
2023/10/12 13:07:40;;;;;;;;;;;;;;;18.59;67.71;102064.72;5019423;28;19956;-90
2023/10/12 13:10:07;;;;;;;;;;;;;;;18.60;67.20;102064.75;5057993;28;20015;-89
2023/10/12 13:12:32;;;;;;;;;;;;;;;18.54;67.77;102069.78;5022904;28;19917;-88
2023/10/12 13:15:00;;;;;;;;;;;;;;;18.56;67.64;102056.63;5019182;28;20023;-89
2023/10/12 13:17:30;;;;;;;;;;;;;;;18.56;67.82;102060.16;5013582;28;20345;-89
2023/10/12 13:19:58;;;;;;;;;;;;;;;18.55;67.61;102057.47;5034544;28;19917;-89
2023/10/12 13:22:27;;;;;;;;;;;;;;;18.52;67.94;102058.25;5024346;28;19957;-89
2023/10/12 13:24:57;;;;;;;;;;;;;;;18.57;67.65;102054.06;5027798;28;19920;-90
2023/10/12 13:27:29;;;;;;;;;;;;;;;18.52;67.91;102055.63;5029820;28;19968;-90
2023/10/12 13:30:09;;;;;;;;;;;;;;;18.51;67.80;102048.50;5022452;28;20011;-89
2023/10/12 13:32:38;;;;;;;;;;;;;;;18.62;67.70;102043.66;5031050;28;20360;-90
2023/10/12 13:35:17;;;;;;;;;;;;;;;18.57;68.14;102037.28;5034800;28;19920;-90
2023/10/12 13:37:51;;;;;;;;;;;;;;;18.58;67.79;102034.69;5023935;28;20425;-90
2023/10/12 13:40:18;;;;;;;;;;;;;;;18.59;67.54;102035.59;5031511;28;19913;-90
2023/10/12 13:42:44;;;;;;;;;;;;;;;18.54;68.50;102027.44;5056020;28;19931;-89
2023/10/12 13:45:13;;;;;;;;;;;;;;;18.57;68.31;102024.94;5031127;28;19917;-90
2023/10/12 13:47:40;;;;;;;;;;;;;;;18.52;68.59;102024.78;5025564;28;20382;-90
2023/10/12 13:50:10;;;;;;;;;;;;;;;18.52;69.08;102018.56;5036367;28;19912;-90
2023/10/12 13:52:38;;;;;;;;;;;;;;;18.53;69.22;102015.09;5023788;28;20051;-90
2023/10/12 13:55:08;;;;;;;;;;;;;;;18.57;68.77;102016.13;5051319;28;19917;-90
2023/10/12 13:57:36;;;;;;;;;;;;;;;18.57;69.63;102014.38;5035798;28;19939;-91
2023/10/12 14:00:02;;;;;;;;;;;;;;;18.56;68.53;102019.59;5022604;28;20011;-92
2023/10/12 14:02:29;;;;;;;;;;;;;;;18.59;69.71;102020.63;5028859;28;20405;-91
2023/10/12 14:04:57;;;;;;;;;;;;;;;18.61;68.79;102020.69;5035616;28;19917;-90
2023/10/12 14:07:25;;;;;;;;;;;;;;;18.63;68.76;102011.97;5039276;28;19913;-90
2023/10/12 14:09:55;;;;;;;;;;;;;;;18.63;70.16;102011.97;5035067;28;19913;-90
2023/10/12 14:12:24;;;;;;;;;;;;;;;18.64;69.58;102013.75;5034475;28;19921;-91
2023/10/12 14:14:50;;;;;;;;;;;;;;;18.67;68.81;102013.00;5025305;28;19913;-89
2023/10/12 14:17:15;;;;;;;;;;;;;;;18.71;69.84;102010.56;5044106;28;19924;-90
2023/10/12 14:19:40;;;;;;;;;;;;;;;18.71;70.23;102012.25;5032745;28;20009;-90
2023/10/12 14:22:07;;;;;;;;;;;;;;;18.71;69.34;102009.63;5018789;28;19995;-89
2023/10/12 14:24:33;;;;;;;;;;;;;;;18.69;70.84;102012.22;5026134;28;19975;-90
2023/10/12 14:27:06;;;;;;;;;;;;;;;18.71;70.09;102009.63;5019377;28;19919;-90
2023/10/12 14:29:32;;;;;;;;;;;;;;;18.69;70.07;102004.28;5031908;28;19968;-91
2023/10/12 14:32:02;;;;;;;;;;;;;;;18.71;69.43;101999.97;5011752;28;19999;-90
2023/10/12 14:34:29;;;;;;;;;;;;;;;18.71;70.20;102001.69;5017665;28;19920;-90
2023/10/12 14:37:13;;;;;;;;;;;;;;;18.70;69.56;101994.59;5018676;28;20426;-91
2023/10/12 14:39:39;;;;;;;;;;;;;;;18.68;71.02;101998.94;5015189;28;19913;-91
2023/10/12 14:42:06;;;;;;;;;;;;;;;18.64;69.78;102000.53;5040448;28;19913;-91
2023/10/12 14:44:34;;;;;;;;;;;;;;;18.67;70.41;101995.38;5006693;28;20306;-91
2023/10/12 14:47:04;;;;;;;;;;;;;;;18.68;70.48;101993.63;5033067;28;19927;-90
2023/10/12 14:49:33;;;;;;;;;;;;;;;18.70;69.90;101999.91;5008939;28;19976;-90
2023/10/12 14:52:00;;;;;;;;;;;;;;;18.68;69.60;101996.28;5003467;28;19952;-91
2023/10/12 14:54:27;;;;;;;;;;;;;;;18.68;69.62;101994.53;5014062;28;19913;-91
2023/10/12 14:56:53;;;;;;;;;;;;;;;18.68;70.89;101993.63;5003342;28;19977;-90
2023/10/12 14:59:21;;;;;;;;;;;;;;;18.70;69.61;101992.84;5016675;28;19913;-91
2023/10/12 15:01:51;;;;;;;;;;;;;;;18.71;70.70;101989.38;4998669;28;20276;-91
2023/10/12 15:04:17;;;;;;;;;;;;;;;18.70;70.09;101992.84;5032114;28;20028;-90
2023/10/12 15:06:42;;;;;;;;;;;;;;;18.72;70.75;101991.16;5014519;28;20456;-91